In Rescue
 
Open Full Screen Window  High Contrast Mode
Wind Gusting 20 knots
13
July 22, 2019 5:00 PM EDT
Weather Information
Wind Direction
  020 °
Wind Speed
  13 kt (15 mph)
Wind Gust
  20 kt (23 mph)
Altimeter
29.98 in
Visibility
10 SM
Temperature
22° C
72° F
Dewpoint
08° C
46° F
Humidity
41%
Sky Condition
Clear
VFR

METAR KBAX 222100Z AUTO 02013G20KT 10SM CLR 22/08 A2998 RMK AO2 T02150078

FAA Disclaimer: The data displayed is for advisory purposes only and is not to be used for flight planning or operations.